createdAt,value
2023-05-21T11:57:30.698Z,99765.06
2023-05-21T12:00:14.195Z,99762.34
2023-05-21T12:02:59.473Z,99752.03
2023-05-21T12:05:51.572Z,99748.78
2023-05-21T12:08:38.414Z,99752.22
2023-05-21T12:11:16.692Z,99743.31
2023-05-21T12:14:12.724Z,99746.75
2023-05-21T12:16:53.803Z,99740.72
2023-05-21T12:19:43.265Z,99743.91
2023-05-21T12:22:29.885Z,99744.72
2023-05-21T12:25:20.684Z,99734.56
2023-05-21T12:27:59.250Z,99731.63
2023-05-21T12:30:40.120Z,99733.72
2023-05-21T12:33:25.015Z,99737.97
2023-05-21T12:36:04.139Z,99734.53
2023-05-21T12:38:48.528Z,99724.78
2023-05-21T12:41:22.168Z,99735.09
2023-05-21T12:44:05.809Z,99722.59
2023-05-21T12:46:54.196Z,99723.13
2023-05-21T12:49:58.521Z,99710.66
2023-05-21T12:52:43.210Z,99715.22
2023-05-21T12:55:26.818Z,99709.91
2023-05-21T12:58:18.397Z,99717.28
2023-05-21T13:01:16.764Z,99707.38
2023-05-21T13:04:06.574Z,99705.47
2023-05-21T13:06:50.426Z,99708.97
2023-05-21T13:09:35.334Z,99695.56
2023-05-21T13:12:19.522Z,99703.50
2023-05-21T13:15:16.050Z,99697.28
2023-05-21T13:18:02.219Z,99697.19
2023-05-21T13:20:51.226Z,99681.59
2023-05-21T13:23:35.172Z,99683.84
2023-05-21T13:26:26.109Z,99684.06
2023-05-21T13:29:14.925Z,99684.03
2023-05-21T13:32:03.464Z,99688.09
2023-05-21T13:34:55.325Z,99689.69
2023-05-21T13:37:38.277Z,99684.66
2023-05-21T13:40:26.169Z,99677.06
2023-05-21T13:43:08.792Z,99678.53
2023-05-21T13:45:54.259Z,99678.91
2023-05-21T13:48:52.230Z,99668.38
2023-05-21T13:51:38.523Z,99670.94
2023-05-21T13:54:33.644Z,99671.22
2023-05-21T13:57:37.522Z,99670.31
2023-05-21T14:00:19.246Z,99656.41
2023-05-21T14:03:05.406Z,99655.88
2023-05-21T14:05:44.212Z,99670.56
2023-05-21T14:08:30.585Z,99653.66
2023-05-21T14:11:17.607Z,99662.16
2023-05-21T14:14:03.977Z,99667.25
2023-05-21T14:16:47.441Z,99658.09
2023-05-21T14:19:39.127Z,99665.13
2023-05-21T14:22:20.652Z,99668.59
2023-05-21T14:25:04.137Z,99664.06
2023-05-21T14:27:50.199Z,99666.50
2023-05-21T14:30:27.870Z,99654.06
2023-05-21T14:33:16.513Z,99656.34
2023-05-21T14:36:13.715Z,99656.09
2023-05-21T14:39:03.233Z,99650.88
2023-05-21T14:41:47.923Z,99641.28
2023-05-21T14:44:32.706Z,99640.09
2023-05-21T14:47:17.785Z,99647.94
2023-05-21T14:49:56.272Z,99642.94
2023-05-21T14:52:36.942Z,99641.00
2023-05-21T14:55:17.109Z,99648.31
2023-05-21T14:58:00.407Z,99643.66
2023-05-21T15:00:45.755Z,99641.38
2023-05-21T15:03:31.897Z,99639.03
2023-05-21T15:06:22.336Z,99643.00
2023-05-21T15:09:15.781Z,99636.84
2023-05-21T15:12:06.245Z,99630.59
2023-05-21T15:14:50.296Z,99636.78
2023-05-21T15:17:39.420Z,99629.09
2023-05-21T15:20:25.315Z,99635.16
2023-05-21T15:23:17.472Z,99631.59
2023-05-21T15:26:02.951Z,99636.09
2023-05-21T15:28:38.409Z,99625.31
2023-05-21T15:31:31.051Z,99622.38
2023-05-21T15:34:25.940Z,99623.44
2023-05-21T15:37:09.213Z,99628.28
2023-05-21T15:39:57.980Z,99623.16
2023-05-21T15:42:42.472Z,99623.94
2023-05-21T15:45:28.315Z,99615.34
2023-05-21T15:48:14.861Z,99613.66
2023-05-21T15:50:58.546Z,99619.56
2023-05-21T15:53:44.526Z,99616.47
2023-05-21T15:56:28.057Z,99621.22
2023-05-21T15:59:04.261Z,99625.78
2023-05-21T16:01:54.266Z,99619.88
2023-05-21T16:04:36.530Z,99624.84
2023-05-21T16:07:23.627Z,99624.75
2023-05-21T16:10:07.644Z,99624.22
2023-05-21T16:12:59.058Z,99623.28
2023-05-21T16:15:44.957Z,99628.38
2023-05-21T16:18:27.034Z,99629.19
2023-05-21T16:21:13.260Z,99632.59
2023-05-21T16:24:06.442Z,99631.75
2023-05-21T16:26:55.110Z,99625.34
2023-05-21T16:29:41.888Z,99633.50
2023-05-21T16:32:40.300Z,99635.44
2023-05-21T16:35:28.177Z,99632.38
2023-05-21T16:38:15.296Z,99636.09
2023-05-21T16:40:53.339Z,99632.03
2023-05-21T16:43:37.974Z,99632.72
2023-05-21T16:46:24.503Z,99633.16
2023-05-21T16:49:14.155Z,99635.78
2023-05-21T16:51:58.486Z,99638.59
2023-05-21T16:54:50.188Z,99645.19
2023-05-21T16:57:38.633Z,99642.72
2023-05-21T17:00:11.716Z,99655.66
2023-05-21T17:02:57.938Z,99650.66
2023-05-21T17:05:38.868Z,99647.94
2023-05-21T17:08:26.712Z,99650.66
2023-05-21T17:11:08.257Z,99651.88
2023-05-21T17:13:51.303Z,99645.63
2023-05-21T17:16:31.414Z,99641.56
2023-05-21T17:19:23.370Z,99646.59
2023-05-21T17:22:01.330Z,99645.75
2023-05-21T17:24:45.296Z,99641.66
2023-05-21T17:27:23.124Z,99636.28
2023-05-21T17:30:10.710Z,99641.88
2023-05-21T17:32:59.655Z,99634.38
2023-05-21T17:35:41.627Z,99636.38
2023-05-21T17:38:31.008Z,99637.28
2023-05-21T17:41:19.250Z,99641.00
2023-05-21T17:44:14.265Z,99637.88
2023-05-21T17:46:57.724Z,99647.13
2023-05-21T17:49:41.154Z,99641.91
2023-05-21T17:52:27.086Z,99642.69
2023-05-21T17:55:21.603Z,99644.69
2023-05-21T17:58:06.832Z,99642.28
2023-05-21T18:00:52.298Z,99637.84
2023-05-21T18:03:28.227Z,99639.38
2023-05-21T18:06:11.297Z,99637.94
2023-05-21T18:08:53.138Z,99641.94
2023-05-21T18:11:30.773Z,99633.50
2023-05-21T18:14:14.103Z,99638.78
2023-05-21T18:16:58.419Z,99638.13
2023-05-21T18:19:47.787Z,99643.47
2023-05-21T18:22:31.617Z,99639.84
2023-05-21T18:25:14.680Z,99638.97
2023-05-21T18:27:59.878Z,99636.97
2023-05-21T18:30:44.516Z,99631.31
2023-05-21T18:33:31.568Z,99632.56
2023-05-21T18:36:16.697Z,99636.75
2023-05-21T18:39:02.302Z,99638.13
2023-05-21T18:41:47.262Z,99643.97
2023-05-21T18:44:32.790Z,99645.13
2023-05-21T18:47:19.984Z,99645.09
2023-05-21T18:50:03.068Z,99655.06
2023-05-21T18:52:54.758Z,99652.59
2023-05-21T18:55:39.328Z,99660.91
2023-05-21T18:58:17.254Z,99657.34
2023-05-21T19:01:06.742Z,99658.09
2023-05-21T19:03:56.063Z,99657.53
2023-05-21T19:06:38.385Z,99660.69
2023-05-21T19:09:25.339Z,99662.47
2023-05-21T19:12:12.091Z,99667.34
2023-05-21T19:14:55.621Z,99664.50
2023-05-21T19:17:39.086Z,99675.03
2023-05-21T19:20:27.486Z,99675.03
2023-05-21T19:23:04.629Z,99673.00
2023-05-21T19:25:47.275Z,99672.81
2023-05-21T19:28:26.716Z,99674.34
2023-05-21T19:31:05.313Z,99681.53
2023-05-21T19:33:46.895Z,99680.53
2023-05-21T19:36:25.833Z,99675.47
2023-05-21T19:39:17.754Z,99678.25
2023-05-21T19:41:58.707Z,99683.44
2023-05-21T19:44:44.875Z,99679.28
2023-05-21T19:47:31.532Z,99687.44
2023-05-21T19:50:12.902Z,99671.84
2023-05-21T19:53:04.778Z,99678.44
2023-05-21T19:55:54.369Z,99668.44
2023-05-21T19:58:40.974Z,99671.59
2023-05-21T20:01:23.591Z,99677.69
2023-05-21T20:03:56.507Z,99679.50
2023-05-21T20:06:40.316Z,99669.81
2023-05-21T20:09:18.584Z,99672.72
2023-05-21T20:12:05.086Z,99671.66
2023-05-21T20:14:49.454Z,99674.66
2023-05-21T20:17:24.746Z,99673.66
2023-05-21T20:20:12.568Z,99678.94
2023-05-21T20:22:56.384Z,99671.03
2023-05-21T20:25:40.299Z,99679.19
2023-05-21T20:28:19.826Z,99685.69
2023-05-21T20:31:07.407Z,99685.28
2023-05-21T20:33:47.653Z,99685.28
2023-05-21T20:36:29.913Z,99681.50
2023-05-21T20:39:23.441Z,99684.25
2023-05-21T20:41:59.899Z,99685.28
2023-05-21T20:44:48.027Z,99684.41
2023-05-21T20:47:24.492Z,99687.25
2023-05-21T20:50:02.287Z,99709.41
2023-05-21T20:52:40.292Z,99707.75
2023-05-21T20:55:21.563Z,99705.59
2023-05-21T20:57:59.015Z,99699.84
2023-05-21T21:00:46.997Z,99701.03
2023-05-21T21:03:20.568Z,99701.38
2023-05-21T21:06:09.918Z,99700.78
2023-05-21T21:08:51.232Z,99696.25
2023-05-21T21:11:32.281Z,99693.66
2023-05-21T21:14:07.372Z,99697.19
2023-05-21T21:16:46.743Z,99697.88
2023-05-21T21:19:29.906Z,99698.09
2023-05-21T21:22:09.942Z,99704.72
2023-05-21T21:25:00.131Z,99706.69
2023-05-21T21:27:44.680Z,99700.31
2023-05-21T21:30:42.604Z,99705.41
2023-05-21T21:33:27.363Z,99704.31
2023-05-21T21:36:28.957Z,99701.94
2023-05-21T21:39:08.222Z,99699.47
2023-05-21T21:41:54.366Z,99699.72
2023-05-21T21:44:32.692Z,99700.53
2023-05-21T21:47:11.410Z,99705.00
2023-05-21T21:50:06.812Z,99690.84
2023-05-21T21:53:04.251Z,99695.91
2023-05-21T21:55:38.719Z,99696.84
2023-05-21T21:58:20.005Z,99691.03
2023-05-21T22:01:01.745Z,99690.09
2023-05-21T22:03:46.248Z,99692.88
2023-05-21T22:06:30.664Z,99695.75
2023-05-21T22:09:17.171Z,99691.34
2023-05-21T22:12:10.842Z,99695.50
2023-05-21T22:14:53.995Z,99687.88
2023-05-21T22:17:37.736Z,99692.75
2023-05-21T22:20:17.938Z,99689.31
2023-05-21T22:22:59.273Z,99697.03
2023-05-21T22:25:51.252Z,99688.44
2023-05-21T22:28:36.333Z,99683.03
2023-05-21T22:31:21.148Z,99692.28
2023-05-21T22:34:12.792Z,99691.53
2023-05-21T22:36:59.225Z,99691.84
2023-05-21T22:39:41.479Z,99692.69
2023-05-21T22:42:23.252Z,99694.47
2023-05-21T22:45:08.323Z,99694.84
2023-05-21T22:47:54.686Z,99694.56
2023-05-21T22:50:46.987Z,99695.94
2023-05-21T22:53:34.156Z,99691.84
2023-05-21T22:56:18.130Z,99686.38
2023-05-21T22:59:00.124Z,99695.81
2023-05-21T23:01:42.384Z,99693.34
2023-05-21T23:04:35.619Z,99691.94
2023-05-21T23:07:19.856Z,99687.28
2023-05-21T23:10:09.677Z,99689.06
2023-05-21T23:12:53.304Z,99691.69
2023-05-21T23:15:44.065Z,99694.78
2023-05-21T23:18:27.660Z,99700.09
2023-05-21T23:21:09.304Z,99702.25
2023-05-21T23:23:50.128Z,99710.34
2023-05-21T23:26:36.133Z,99703.91
2023-05-21T23:29:15.279Z,99692.63
2023-05-21T23:31:54.648Z,99701.00
2023-05-21T23:34:36.987Z,99699.72
2023-05-21T23:37:22.713Z,99703.66
2023-05-21T23:40:08.359Z,99707.97
2023-05-21T23:42:51.659Z,99709.47
2023-05-21T23:45:42.219Z,99703.44
2023-05-21T23:48:17.629Z,99707.38
2023-05-21T23:50:52.906Z,99706.38
2023-05-21T23:53:36.831Z,99713.88
2023-05-21T23:56:15.295Z,99713.63
2023-05-21T23:58:53.626Z,99708.75
